createdAt,value
2022-10-01T00:00:55.322Z,9.47
2022-10-01T00:03:24.287Z,9.41
2022-10-01T00:06:12.173Z,9.38
2022-10-01T00:08:41.381Z,9.46
2022-10-01T00:11:14.132Z,9.47
2022-10-01T00:13:46.129Z,9.50
2022-10-01T00:16:15.480Z,9.47
2022-10-01T00:18:45.670Z,9.52
2022-10-01T00:21:15.198Z,9.55
2022-10-01T00:23:42.386Z,9.51
2022-10-01T00:26:09.689Z,9.47
2022-10-01T00:28:36.117Z,9.51
2022-10-01T00:31:02.742Z,9.60
2022-10-01T00:33:29.193Z,9.52
2022-10-01T00:35:56.935Z,9.49
2022-10-01T00:38:24.089Z,9.47
2022-10-01T00:40:51.163Z,9.45
2022-10-01T00:43:25.837Z,9.51
2022-10-01T00:45:57.438Z,9.50
2022-10-01T00:48:25.798Z,9.55
2022-10-01T00:50:52.886Z,9.53
2022-10-01T00:53:21.837Z,9.55
2022-10-01T00:55:55.147Z,9.52
2022-10-01T00:58:23.502Z,9.56
2022-10-01T01:00:53.870Z,9.64
2022-10-01T01:03:20.329Z,9.63
2022-10-01T01:05:50.082Z,9.69
2022-10-01T01:08:17.568Z,9.70
2022-10-01T01:10:54.469Z,9.83
2022-10-01T01:13:29.163Z,9.91
2022-10-01T01:15:59.658Z,9.85
2022-10-01T01:18:33.240Z,9.91
2022-10-01T01:21:21.674Z,9.96
2022-10-01T01:24:33.595Z,9.94
2022-10-01T01:27:08.722Z,9.83
2022-10-01T01:29:46.032Z,9.84
2022-10-01T01:32:19.177Z,9.77
2022-10-01T01:34:50.992Z,9.77
2022-10-01T01:37:22.473Z,9.79
2022-10-01T01:39:52.754Z,9.69
2022-10-01T01:42:31.146Z,9.62
2022-10-01T01:45:01.295Z,9.56
2022-10-01T01:47:30.448Z,9.55
2022-10-01T01:49:58.469Z,9.50
2022-10-01T01:52:25.669Z,9.47
2022-10-01T01:54:52.199Z,9.43
2022-10-01T01:57:20.106Z,9.39
2022-10-01T01:59:47.085Z,9.36
2022-10-01T02:02:20.019Z,9.38
2022-10-01T02:04:54.705Z,9.37
2022-10-01T02:07:33.212Z,9.38
2022-10-01T02:10:21.901Z,9.34
2022-10-01T02:13:18.022Z,9.36
2022-10-01T02:16:38.911Z,9.36
2022-10-01T02:19:16.465Z,9.34
2022-10-01T02:22:08.933Z,9.35
2022-10-01T02:24:56.871Z,9.30
2022-10-01T02:27:33.348Z,9.35
2022-10-01T02:30:05.097Z,9.29
2022-10-01T02:32:32.710Z,9.33
2022-10-01T02:35:01.549Z,9.32
2022-10-01T02:37:28.683Z,9.36
2022-10-01T02:39:57.319Z,9.28
2022-10-01T02:42:29.036Z,9.23
2022-10-01T02:45:01.301Z,9.28
2022-10-01T02:47:40.703Z,9.26
2022-10-01T02:50:08.684Z,9.32
2022-10-01T02:52:55.537Z,9.33
2022-10-01T02:55:33.301Z,9.28
2022-10-01T02:57:59.675Z,9.28
2022-10-01T03:00:27.018Z,9.24
2022-10-01T03:02:53.718Z,9.25
2022-10-01T03:05:20.695Z,9.25
2022-10-01T03:07:47.897Z,9.27
2022-10-01T03:10:16.148Z,9.31
2022-10-01T03:12:45.230Z,9.31
2022-10-01T03:15:13.096Z,9.26
2022-10-01T03:17:39.742Z,9.25
2022-10-01T03:20:07.176Z,9.37
2022-10-01T03:22:33.609Z,9.28
2022-10-01T03:25:00.243Z,9.29
2022-10-01T03:27:26.792Z,9.30
2022-10-01T03:29:53.393Z,9.37
2022-10-01T03:32:20.305Z,9.34
2022-10-01T03:34:48.090Z,9.38
2022-10-01T03:37:14.521Z,9.37
2022-10-01T03:39:41.048Z,9.35
2022-10-01T03:42:07.504Z,9.35
2022-10-01T03:44:34.074Z,9.35
2022-10-01T03:47:00.503Z,9.42
2022-10-01T03:49:27.817Z,9.39
2022-10-01T03:51:54.352Z,9.43
2022-10-01T03:54:22.310Z,9.46
2022-10-01T03:56:48.968Z,9.50
2022-10-01T03:59:15.485Z,9.51
2022-10-01T04:01:41.911Z,9.51
2022-10-01T04:04:08.589Z,9.49
2022-10-01T04:06:34.962Z,9.48
2022-10-01T04:09:02.698Z,9.48
2022-10-01T04:11:29.130Z,9.47
2022-10-01T04:13:57.854Z,9.45
2022-10-01T04:16:25.397Z,9.46
2022-10-01T04:18:52.121Z,9.46
2022-10-01T04:21:19.361Z,9.52
2022-10-01T04:23:46.021Z,9.57
2022-10-01T04:26:15.760Z,9.54
2022-10-01T04:28:45.061Z,9.52
2022-10-01T04:31:26.821Z,9.51
2022-10-01T04:33:55.720Z,9.52
2022-10-01T04:36:23.730Z,9.63
2022-10-01T04:38:58.051Z,9.60
2022-10-01T04:41:30.190Z,9.61
2022-10-01T04:43:57.393Z,9.65
2022-10-01T04:46:23.870Z,9.62
2022-10-01T04:48:50.399Z,9.55
2022-10-01T04:51:17.601Z,9.63
2022-10-01T04:53:45.135Z,9.68
2022-10-01T04:56:11.609Z,9.64
2022-10-01T04:58:38.467Z,9.64
2022-10-01T05:01:04.919Z,9.61
2022-10-01T05:03:31.601Z,9.58
2022-10-01T05:05:58.089Z,9.62
2022-10-01T05:08:24.581Z,9.61
2022-10-01T05:10:51.002Z,9.54
2022-10-01T05:13:17.433Z,9.57
2022-10-01T05:15:44.741Z,9.55
2022-10-01T05:18:11.242Z,9.59
2022-10-01T05:20:38.357Z,9.58
2022-10-01T05:23:04.881Z,9.58
2022-10-01T05:25:31.576Z,9.60
2022-10-01T05:28:05.724Z,9.62
2022-10-01T05:30:33.569Z,9.71
2022-10-01T05:33:02.121Z,9.73
2022-10-01T05:35:29.709Z,9.70
2022-10-01T05:37:58.234Z,9.72
2022-10-01T05:40:27.509Z,9.81
2022-10-01T05:42:56.203Z,9.82
2022-10-01T05:45:23.557Z,9.73
2022-10-01T05:48:01.454Z,9.81
2022-10-01T05:50:31.274Z,9.82
2022-10-01T05:52:59.290Z,9.80
2022-10-01T05:55:26.908Z,9.85
2022-10-01T05:58:01.547Z,9.83
2022-10-01T06:00:29.117Z,9.85
2022-10-01T06:02:57.990Z,9.88
2022-10-01T06:05:25.348Z,9.91
2022-10-01T06:07:53.418Z,9.91
2022-10-01T06:10:21.152Z,9.90
2022-10-01T06:12:48.508Z,9.93
2022-10-01T06:15:17.338Z,9.93
2022-10-01T06:17:45.138Z,9.97
2022-10-01T06:20:13.663Z,9.97
2022-10-01T06:22:41.003Z,10.00
2022-10-01T06:25:10.891Z,9.95
2022-10-01T06:27:37.322Z,10.00
2022-10-01T06:30:05.443Z,10.02
2022-10-01T06:32:34.902Z,10.08
2022-10-01T06:35:02.589Z,10.05
2022-10-01T06:37:29.270Z,10.09
2022-10-01T06:39:55.787Z,10.12
2022-10-01T06:42:22.399Z,10.07
2022-10-01T06:44:49.002Z,10.12
2022-10-01T06:47:15.413Z,10.14
2022-10-01T06:49:45.540Z,10.17
2022-10-01T06:52:37.371Z,10.12
2022-10-01T06:55:04.182Z,10.12
2022-10-01T06:57:30.888Z,10.13
2022-10-01T06:59:57.924Z,10.16
2022-10-01T07:02:30.130Z,10.19
2022-10-01T07:04:59.014Z,10.16
2022-10-01T07:07:33.038Z,10.20
2022-10-01T07:09:59.680Z,10.20
2022-10-01T07:12:26.499Z,10.16
2022-10-01T07:14:53.955Z,10.19
2022-10-01T07:17:21.351Z,10.17
2022-10-01T07:19:47.992Z,10.22
2022-10-01T07:22:14.427Z,10.17
2022-10-01T07:24:40.936Z,10.26
2022-10-01T07:27:07.697Z,10.27
2022-10-01T07:29:34.608Z,10.25
2022-10-01T07:32:02.093Z,10.28
2022-10-01T07:34:30.983Z,10.33
2022-10-01T07:36:57.383Z,10.37
2022-10-01T07:39:24.236Z,10.37
2022-10-01T07:41:51.450Z,10.43
2022-10-01T07:44:19.245Z,10.47
2022-10-01T07:46:46.342Z,10.53
2022-10-01T07:49:13.287Z,10.68
2022-10-01T07:51:39.681Z,10.80
2022-10-01T07:54:06.172Z,10.87
2022-10-01T07:56:32.525Z,10.98
2022-10-01T07:58:59.517Z,11.02
2022-10-01T08:01:26.018Z,11.02
2022-10-01T08:03:53.136Z,11.05
2022-10-01T08:06:25.562Z,11.10
2022-10-01T08:08:52.368Z,11.13
2022-10-01T08:11:18.794Z,11.14
2022-10-01T08:13:45.740Z,11.13
2022-10-01T08:16:13.001Z,11.14
2022-10-01T08:18:43.535Z,11.15
2022-10-01T08:21:10.309Z,11.15
2022-10-01T08:23:36.876Z,11.12
2022-10-01T08:26:07.718Z,11.19
2022-10-01T08:28:35.266Z,11.32
2022-10-01T08:31:09.962Z,11.37
2022-10-01T08:33:38.030Z,11.42
2022-10-01T08:36:09.454Z,11.56
2022-10-01T08:38:36.891Z,11.56
2022-10-01T08:41:24.588Z,11.55
2022-10-01T08:43:52.974Z,11.63
2022-10-01T08:46:23.559Z,11.75
2022-10-01T08:48:58.775Z,11.77
2022-10-01T08:51:32.905Z,11.94
2022-10-01T08:54:07.529Z,12.03
2022-10-01T08:56:44.308Z,12.15
2022-10-01T08:59:36.092Z,12.12
2022-10-01T09:02:02.768Z,12.15
2022-10-01T09:04:29.309Z,12.15
2022-10-01T09:07:20.913Z,12.18
2022-10-01T09:10:01.219Z,12.18
2022-10-01T09:12:36.644Z,12.23
2022-10-01T09:15:21.014Z,12.30
2022-10-01T09:18:06.752Z,12.41
2022-10-01T09:20:45.262Z,12.51
2022-10-01T09:23:26.669Z,12.64
2022-10-01T09:25:53.199Z,12.69
2022-10-01T09:28:34.782Z,12.69
2022-10-01T09:31:18.533Z,12.69
2022-10-01T09:34:13.168Z,12.74
2022-10-01T09:37:08.227Z,12.75
2022-10-01T09:39:53.201Z,12.73
2022-10-01T09:42:23.845Z,12.69
2022-10-01T09:44:50.494Z,12.81
2022-10-01T09:47:20.214Z,12.97
2022-10-01T09:49:49.453Z,13.13
2022-10-01T09:52:31.544Z,13.16
2022-10-01T09:55:23.042Z,13.19
2022-10-01T09:58:01.368Z,13.26
2022-10-01T10:00:28.106Z,13.34
2022-10-01T10:02:56.289Z,13.49
2022-10-01T10:05:29.268Z,13.60
2022-10-01T10:08:11.000Z,13.68
2022-10-01T10:10:40.042Z,13.73
2022-10-01T10:13:10.654Z,13.81
2022-10-01T10:15:57.493Z,13.69
2022-10-01T10:18:38.465Z,13.73
2022-10-01T10:21:12.022Z,13.84
2022-10-01T10:23:53.548Z,13.84
2022-10-01T10:26:43.435Z,13.85
2022-10-01T10:29:26.754Z,13.90
2022-10-01T10:31:55.455Z,14.11
2022-10-01T10:34:38.308Z,14.29
2022-10-01T10:37:13.764Z,14.43
2022-10-01T10:39:43.150Z,14.56
2022-10-01T10:42:18.714Z,14.72
2022-10-01T10:44:49.270Z,14.79
2022-10-01T10:47:18.282Z,14.95
2022-10-01T10:49:47.767Z,15.07
2022-10-01T10:52:29.950Z,15.13
2022-10-01T10:54:59.033Z,15.23
2022-10-01T10:57:34.231Z,15.30
2022-10-01T11:00:01.906Z,15.27
2022-10-01T11:02:30.852Z,15.22
2022-10-01T11:05:02.121Z,15.10
2022-10-01T11:07:29.859Z,15.02
2022-10-01T11:10:15.035Z,14.95
2022-10-01T11:13:18.192Z,14.82
2022-10-01T11:15:45.335Z,14.78
2022-10-01T11:18:26.495Z,14.50
2022-10-01T11:21:11.276Z,14.31
2022-10-01T11:23:53.637Z,14.29
2022-10-01T11:26:45.216Z,14.15
2022-10-01T11:29:42.618Z,14.21
2022-10-01T11:32:36.967Z,14.45
2022-10-01T11:35:26.087Z,14.75
2022-10-01T11:38:00.668Z,15.12
2022-10-01T11:40:39.909Z,15.24
2022-10-01T11:43:22.434Z,15.47
2022-10-01T11:45:56.283Z,15.68
2022-10-01T11:48:31.461Z,15.79
2022-10-01T11:51:05.455Z,15.96
2022-10-01T11:53:38.179Z,16.00
2022-10-01T11:56:36.073Z,16.10
2022-10-01T11:59:09.738Z,16.20
2022-10-01T12:02:11.179Z,16.17
2022-10-01T12:04:50.597Z,16.27
2022-10-01T12:07:26.735Z,16.27
2022-10-01T12:10:12.104Z,16.29
2022-10-01T12:12:46.375Z,16.50
2022-10-01T12:15:26.786Z,16.53
2022-10-01T12:18:00.707Z,16.55
2022-10-01T12:20:34.421Z,16.45
2022-10-01T12:23:04.098Z,16.34
2022-10-01T12:26:05.711Z,16.21
2022-10-01T12:28:52.070Z,16.21
2022-10-01T12:31:36.316Z,16.24
2022-10-01T12:34:08.794Z,16.25
2022-10-01T12:36:45.576Z,16.46
2022-10-01T12:39:35.611Z,16.89
2022-10-01T12:42:21.249Z,17.18
2022-10-01T12:44:50.550Z,17.03
2022-10-01T12:47:50.868Z,17.02
2022-10-01T12:50:26.464Z,17.23
2022-10-01T12:53:29.470Z,17.56
2022-10-01T12:56:33.476Z,17.24
2022-10-01T12:59:24.548Z,17.36
2022-10-01T13:02:02.871Z,16.38
2022-10-01T13:04:56.541Z,16.18
2022-10-01T13:07:40.345Z,15.80
2022-10-01T13:10:18.480Z,15.66
2022-10-01T13:13:16.914Z,15.50
2022-10-01T13:15:49.504Z,15.19
2022-10-01T13:18:18.984Z,15.18
2022-10-01T13:21:02.210Z,15.17
2022-10-01T13:23:39.982Z,15.23
2022-10-01T13:26:12.414Z,15.16
2022-10-01T13:29:06.114Z,15.21
2022-10-01T13:31:59.418Z,15.45
2022-10-01T13:34:37.458Z,15.62
2022-10-01T13:37:11.564Z,15.75
2022-10-01T13:39:42.006Z,15.68
2022-10-01T13:42:20.218Z,15.77
2022-10-01T13:44:53.097Z,15.98
2022-10-01T13:47:21.178Z,16.12
2022-10-01T13:50:07.356Z,16.19
2022-10-01T13:52:34.682Z,16.47
2022-10-01T13:55:02.261Z,16.59
2022-10-01T13:57:37.162Z,16.70
2022-10-01T14:00:12.494Z,16.73
2022-10-01T14:02:42.209Z,16.94
2022-10-01T14:05:17.881Z,17.02
2022-10-01T14:07:48.634Z,17.00
2022-10-01T14:10:16.366Z,16.81
2022-10-01T14:13:05.126Z,16.25
2022-10-01T14:15:59.914Z,16.02
2022-10-01T14:18:34.706Z,15.41
2022-10-01T14:21:22.800Z,15.32
2022-10-01T14:24:05.205Z,15.23
2022-10-01T14:26:54.519Z,15.04
2022-10-01T14:29:45.389Z,14.89
2022-10-01T14:32:43.017Z,14.76
2022-10-01T14:35:33.058Z,14.75
2022-10-01T14:38:01.464Z,15.00
2022-10-01T14:40:37.839Z,15.24
2022-10-01T14:43:16.637Z,15.09
2022-10-01T14:45:50.367Z,15.11
2022-10-01T14:48:16.906Z,15.03
2022-10-01T14:50:49.373Z,14.81
2022-10-01T14:53:18.387Z,14.72
2022-10-01T14:55:50.017Z,14.60
2022-10-01T14:58:26.315Z,14.47
2022-10-01T15:00:54.924Z,14.51
2022-10-01T15:03:21.618Z,14.43
2022-10-01T15:05:49.503Z,14.37
2022-10-01T15:08:20.309Z,14.37
2022-10-01T15:11:03.833Z,14.49
2022-10-01T15:13:36.091Z,14.65
2022-10-01T15:16:02.969Z,14.91
2022-10-01T15:18:30.539Z,15.16
2022-10-01T15:21:06.975Z,15.21
2022-10-01T15:23:38.815Z,15.37
2022-10-01T15:26:09.172Z,15.54
2022-10-01T15:28:36.656Z,15.61
2022-10-01T15:31:06.598Z,15.52
2022-10-01T15:33:36.225Z,15.40
2022-10-01T15:36:05.059Z,15.26
2022-10-01T15:38:32.898Z,15.07
2022-10-01T15:41:26.814Z,14.81
2022-10-01T15:43:49.557Z,14.62
2022-10-01T15:46:29.166Z,14.56
2022-10-01T15:49:17.514Z,14.36
2022-10-01T15:52:11.809Z,14.38
2022-10-01T15:54:41.796Z,14.48
2022-10-01T15:57:14.732Z,14.65
2022-10-01T15:59:41.465Z,14.63
2022-10-01T16:02:19.807Z,14.65
2022-10-01T16:04:47.357Z,14.61
2022-10-01T16:07:29.937Z,14.52
2022-10-01T16:09:59.196Z,14.36
2022-10-01T16:12:29.193Z,14.24
2022-10-01T16:15:01.457Z,14.20
2022-10-01T16:17:29.826Z,14.08
2022-10-01T16:20:22.081Z,13.99
2022-10-01T16:22:48.742Z,13.87
2022-10-01T16:25:19.423Z,13.84
2022-10-01T16:27:54.980Z,13.75
2022-10-01T16:30:25.536Z,13.66
2022-10-01T16:32:52.068Z,13.65
2022-10-01T16:35:29.313Z,13.59
2022-10-01T16:37:57.870Z,13.47
2022-10-01T16:40:27.025Z,13.55
2022-10-01T16:42:54.093Z,13.43
2022-10-01T16:45:24.526Z,13.48
2022-10-01T16:47:52.348Z,13.42
2022-10-01T16:50:21.513Z,13.35
2022-10-01T16:52:51.792Z,13.31
2022-10-01T16:55:32.410Z,13.24
2022-10-01T16:57:58.805Z,13.27
2022-10-01T17:00:26.418Z,13.16
2022-10-01T17:02:56.870Z,13.10
2022-10-01T17:05:29.338Z,12.99
2022-10-01T17:07:59.269Z,12.95
2022-10-01T17:10:25.792Z,12.81
2022-10-01T17:12:52.440Z,12.70
2022-10-01T17:15:23.226Z,12.54
2022-10-01T17:17:49.712Z,12.36
2022-10-01T17:20:16.630Z,12.20
2022-10-01T17:22:43.471Z,12.09
2022-10-01T17:25:22.322Z,11.87
2022-10-01T17:27:48.874Z,11.80
2022-10-01T17:30:15.881Z,11.68
2022-10-01T17:32:43.365Z,11.57
2022-10-01T17:35:14.711Z,11.45
2022-10-01T17:37:41.829Z,11.42
2022-10-01T17:40:10.063Z,11.33
2022-10-01T17:42:36.690Z,11.27
2022-10-01T17:45:06.680Z,11.26
2022-10-01T17:47:33.716Z,11.24
2022-10-01T17:50:00.351Z,11.18
2022-10-01T17:52:27.977Z,11.14
2022-10-01T17:54:54.425Z,11.07
2022-10-01T17:57:21.393Z,11.03
2022-10-01T17:59:47.785Z,10.95
2022-10-01T18:02:39.786Z,10.91
2022-10-01T18:05:03.316Z,10.89
2022-10-01T18:07:29.921Z,10.81
2022-10-01T18:09:56.321Z,10.77
2022-10-01T18:12:22.867Z,10.80
2022-10-01T18:14:49.812Z,10.84
2022-10-01T18:17:16.374Z,10.80
2022-10-01T18:19:58.118Z,10.75
2022-10-01T18:22:24.960Z,10.67
2022-10-01T18:24:51.504Z,10.51
2022-10-01T18:27:18.503Z,10.46
2022-10-01T18:29:44.958Z,10.45
2022-10-01T18:32:21.637Z,10.45
2022-10-01T18:35:00.226Z,10.48
2022-10-01T18:37:40.063Z,10.46
2022-10-01T18:40:09.983Z,10.46
2022-10-01T18:42:54.611Z,10.52
2022-10-01T18:45:47.573Z,10.57
2022-10-01T18:48:44.592Z,10.59
2022-10-01T18:51:30.752Z,10.64
2022-10-01T18:54:34.405Z,10.56
2022-10-01T18:57:12.871Z,10.46
2022-10-01T18:59:46.561Z,10.45
2022-10-01T19:02:34.140Z,10.49
2022-10-01T19:05:15.784Z,10.47
2022-10-01T19:08:23.436Z,10.44
2022-10-01T19:11:01.774Z,10.41
2022-10-01T19:13:40.522Z,10.35
2022-10-01T19:16:34.895Z,10.30
2022-10-01T19:19:30.868Z,10.27
2022-10-01T19:22:17.953Z,10.19
2022-10-01T19:24:47.545Z,10.10
2022-10-01T19:27:32.674Z,10.05
2022-10-01T19:30:22.616Z,9.99
2022-10-01T19:32:48.991Z,10.01
2022-10-01T19:35:22.677Z,9.95
2022-10-01T19:37:58.182Z,9.93
2022-10-01T19:40:27.543Z,9.89
2022-10-01T19:43:24.735Z,9.85
2022-10-01T19:46:21.275Z,9.93
2022-10-01T19:48:57.973Z,9.82
2022-10-01T19:51:33.887Z,9.93
2022-10-01T19:54:01.537Z,9.93
2022-10-01T19:56:31.055Z,9.91
2022-10-01T19:59:04.681Z,9.90
2022-10-01T20:01:38.562Z,9.84
2022-10-01T20:04:14.577Z,9.84
2022-10-01T20:06:46.806Z,9.78
2022-10-01T20:09:16.346Z,9.72
2022-10-01T20:12:05.291Z,9.71
2022-10-01T20:14:53.260Z,9.71
2022-10-01T20:17:39.421Z,9.78
2022-10-01T20:20:24.397Z,9.83
2022-10-01T20:23:06.107Z,9.95
2022-10-01T20:26:11.058Z,9.96
2022-10-01T20:28:56.497Z,10.12
2022-10-01T20:31:39.535Z,10.13
2022-10-01T20:34:12.117Z,10.05
2022-10-01T20:36:42.334Z,10.01
2022-10-01T20:39:18.362Z,10.08
2022-10-01T20:41:53.162Z,10.04
2022-10-01T20:44:24.815Z,10.03
2022-10-01T20:46:55.943Z,10.12
2022-10-01T20:49:29.804Z,10.11
2022-10-01T20:52:05.455Z,10.14
2022-10-01T20:54:46.492Z,10.13
2022-10-01T20:57:25.686Z,10.12
2022-10-01T20:59:55.320Z,10.07
2022-10-01T21:02:24.976Z,10.09
2022-10-01T21:04:56.352Z,10.26
2022-10-01T21:07:31.720Z,10.39
2022-10-01T21:10:01.183Z,10.49
2022-10-01T21:12:41.924Z,10.54
2022-10-01T21:15:13.731Z,10.57
2022-10-01T21:17:49.326Z,10.46
2022-10-01T21:20:44.338Z,10.36
2022-10-01T21:23:23.841Z,10.37
2022-10-01T21:26:12.096Z,10.34
2022-10-01T21:29:17.056Z,10.47
2022-10-01T21:32:07.527Z,10.62
2022-10-01T21:34:51.120Z,10.50
2022-10-01T21:37:41.333Z,10.43
2022-10-01T21:40:27.958Z,10.39
2022-10-01T21:43:09.814Z,10.36
2022-10-01T21:45:51.488Z,10.45
2022-10-01T21:48:43.386Z,10.62
2022-10-01T21:51:17.309Z,10.68
2022-10-01T21:53:46.896Z,10.71
2022-10-01T21:56:38.391Z,10.71
2022-10-01T21:59:21.079Z,10.62
2022-10-01T22:02:03.603Z,10.61
2022-10-01T22:04:39.161Z,10.70
2022-10-01T22:07:12.792Z,10.65
2022-10-01T22:09:56.541Z,10.66
2022-10-01T22:12:27.966Z,10.58
2022-10-01T22:14:55.759Z,10.73
2022-10-01T22:17:27.559Z,10.84
2022-10-01T22:19:58.664Z,10.95
2022-10-01T22:22:30.473Z,11.10
2022-10-01T22:25:01.867Z,11.25
2022-10-01T22:27:44.134Z,11.37
2022-10-01T22:30:15.503Z,11.42
2022-10-01T22:33:10.870Z,11.44
2022-10-01T22:35:52.750Z,11.62
2022-10-01T22:38:45.526Z,11.72
2022-10-01T22:41:16.914Z,11.75
2022-10-01T22:43:45.603Z,11.72
2022-10-01T22:46:30.281Z,11.78
2022-10-01T22:49:15.056Z,11.72
2022-10-01T22:52:13.864Z,11.70
2022-10-01T22:55:21.202Z,11.60
2022-10-01T22:57:56.301Z,11.53
2022-10-01T23:00:23.208Z,11.59
2022-10-01T23:03:24.941Z,11.58
2022-10-01T23:06:03.495Z,11.58
2022-10-01T23:08:41.722Z,11.55
2022-10-01T23:11:24.312Z,11.50
2022-10-01T23:13:54.514Z,11.50
2022-10-01T23:16:39.925Z,11.43
2022-10-01T23:19:06.365Z,11.41
2022-10-01T23:21:49.225Z,11.43
2022-10-01T23:24:52.399Z,11.44
2022-10-01T23:27:24.741Z,11.57
2022-10-01T23:30:11.941Z,11.68
2022-10-01T23:32:50.684Z,11.78
2022-10-01T23:35:21.373Z,11.74
2022-10-01T23:38:24.808Z,11.73
2022-10-01T23:40:55.617Z,11.69
2022-10-01T23:43:28.483Z,11.68
2022-10-01T23:45:59.239Z,11.57
2022-10-01T23:48:35.784Z,11.50
2022-10-01T23:51:21.525Z,11.39
2022-10-01T23:53:57.551Z,11.32
2022-10-01T23:56:51.162Z,11.35
2022-10-01T23:59:23.506Z,11.32
